sensor_id;sensor_type;location;lat;lon;timestamp;P1;durP1;ratioP1;P2;durP2;ratioP2
6432;SDS011;3249;42.690;23.260;2022-08-03T00:01:02;2.70;;;2.50;;
6432;SDS011;3249;42.690;23.260;2022-08-03T00:03:27;4.93;;;2.60;;
6432;SDS011;3249;42.690;23.260;2022-08-03T00:05:53;3.00;;;2.80;;
6432;SDS011;3249;42.690;23.260;2022-08-03T00:08:18;3.70;;;3.00;;
6432;SDS011;3249;42.690;23.260;2022-08-03T00:10:43;3.10;;;2.80;;
6432;SDS011;3249;42.690;23.260;2022-08-03T00:13:09;2.83;;;2.63;;
6432;SDS011;3249;42.690;23.260;2022-08-03T00:15:37;2.87;;;2.67;;
6432;SDS011;3249;42.690;23.260;2022-08-03T00:18:03;2.87;;;2.40;;
6432;SDS011;3249;42.690;23.260;2022-08-03T00:20:29;4.40;;;2.53;;
6432;SDS011;3249;42.690;23.260;2022-08-03T00:22:54;2.80;;;2.57;;
6432;SDS011;3249;42.690;23.260;2022-08-03T00:25:20;3.07;;;2.83;;
6432;SDS011;3249;42.690;23.260;2022-08-03T00:27:45;3.50;;;2.57;;
6432;SDS011;3249;42.690;23.260;2022-08-03T00:30:11;3.03;;;2.73;;
6432;SDS011;3249;42.690;23.260;2022-08-03T00:32:36;5.80;;;3.10;;
6432;SDS011;3249;42.690;23.260;2022-08-03T00:35:02;4.97;;;3.00;;
6432;SDS011;3249;42.690;23.260;2022-08-03T00:37:28;4.80;;;2.70;;
6432;SDS011;3249;42.690;23.260;2022-08-03T00:39:53;3.00;;;2.80;;
6432;SDS011;3249;42.690;23.260;2022-08-03T00:42:18;4.67;;;3.07;;
6432;SDS011;3249;42.690;23.260;2022-08-03T00:44:44;3.80;;;3.40;;
6432;SDS011;3249;42.690;23.260;2022-08-03T00:47:09;4.07;;;3.07;;
6432;SDS011;3249;42.690;23.260;2022-08-03T00:49:36;3.67;;;3.17;;
6432;SDS011;3249;42.690;23.260;2022-08-03T00:52:02;4.87;;;3.20;;
6432;SDS011;3249;42.690;23.260;2022-08-03T00:54:28;4.20;;;3.57;;
6432;SDS011;3249;42.690;23.260;2022-08-03T00:56:54;2.83;;;2.63;;
6432;SDS011;3249;42.690;23.260;2022-08-03T00:59:20;3.60;;;2.80;;
6432;SDS011;3249;42.690;23.260;2022-08-03T01:01:46;3.03;;;2.77;;
6432;SDS011;3249;42.690;23.260;2022-08-03T01:04:12;4.83;;;3.00;;
6432;SDS011;3249;42.690;23.260;2022-08-03T01:07:00;3.10;;;2.90;;
6432;SDS011;3249;42.690;23.260;2022-08-03T01:12:31;4.07;;;3.10;;
6432;SDS011;3249;42.690;23.260;2022-08-03T01:20:39;3.37;;;2.93;;
6432;SDS011;3249;42.690;23.260;2022-08-03T01:23:26;5.00;;;3.00;;
6432;SDS011;3249;42.690;23.260;2022-08-03T01:29:02;3.40;;;2.90;;
6432;SDS011;3249;42.690;23.260;2022-08-03T01:31:36;8.53;;;4.10;;
6432;SDS011;3249;42.690;23.260;2022-08-03T01:34:06;5.63;;;3.10;;
6432;SDS011;3249;42.690;23.260;2022-08-03T01:36:35;6.77;;;3.60;;
6432;SDS011;3249;42.690;23.260;2022-08-03T01:39:05;8.67;;;3.70;;
6432;SDS011;3249;42.690;23.260;2022-08-03T01:41:34;6.67;;;3.00;;
6432;SDS011;3249;42.690;23.260;2022-08-03T01:44:05;7.33;;;3.73;;
6432;SDS011;3249;42.690;23.260;2022-08-03T01:46:33;7.17;;;3.50;;
6432;SDS011;3249;42.690;23.260;2022-08-03T01:49:00;3.30;;;3.00;;
6432;SDS011;3249;42.690;23.260;2022-08-03T01:51:27;2.93;;;2.73;;
6432;SDS011;3249;42.690;23.260;2022-08-03T01:53:53;6.97;;;3.13;;
6432;SDS011;3249;42.690;23.260;2022-08-03T01:56:21;3.67;;;3.37;;
6432;SDS011;3249;42.690;23.260;2022-08-03T01:58:49;4.63;;;3.50;;
6432;SDS011;3249;42.690;23.260;2022-08-03T02:01:16;4.93;;;3.27;;
6432;SDS011;3249;42.690;23.260;2022-08-03T02:03:44;3.60;;;3.30;;
6432;SDS011;3249;42.690;23.260;2022-08-03T02:06:11;5.27;;;3.43;;
6432;SDS011;3249;42.690;23.260;2022-08-03T02:08:38;6.47;;;3.87;;
6432;SDS011;3249;42.690;23.260;2022-08-03T02:11:05;4.60;;;3.30;;
6432;SDS011;3249;42.690;23.260;2022-08-03T02:13:34;4.90;;;3.40;;
6432;SDS011;3249;42.690;23.260;2022-08-03T02:16:01;5.50;;;3.43;;
6432;SDS011;3249;42.690;23.260;2022-08-03T02:18:28;4.57;;;3.50;;
6432;SDS011;3249;42.690;23.260;2022-08-03T02:20:56;6.83;;;3.63;;
6432;SDS011;3249;42.690;23.260;2022-08-03T02:23:25;6.43;;;3.90;;
6432;SDS011;3249;42.690;23.260;2022-08-03T02:25:52;4.67;;;4.10;;
6432;SDS011;3249;42.690;23.260;2022-08-03T02:28:21;5.43;;;4.10;;
6432;SDS011;3249;42.690;23.260;2022-08-03T02:30:53;7.47;;;3.70;;
6432;SDS011;3249;42.690;23.260;2022-08-03T02:33:24;7.47;;;4.00;;
6432;SDS011;3249;42.690;23.260;2022-08-03T02:35:56;5.77;;;4.30;;
6432;SDS011;3249;42.690;23.260;2022-08-03T02:38:22;6.63;;;4.43;;
6432;SDS011;3249;42.690;23.260;2022-08-03T02:40:52;5.53;;;3.90;;
6432;SDS011;3249;42.690;23.260;2022-08-03T02:43:21;8.43;;;3.67;;
6432;SDS011;3249;42.690;23.260;2022-08-03T02:45:49;7.43;;;3.97;;
6432;SDS011;3249;42.690;23.260;2022-08-03T02:48:17;6.10;;;3.90;;
6432;SDS011;3249;42.690;23.260;2022-08-03T02:50:47;3.47;;;3.27;;
6432;SDS011;3249;42.690;23.260;2022-08-03T02:53:15;3.50;;;3.30;;
6432;SDS011;3249;42.690;23.260;2022-08-03T02:55:42;4.37;;;3.90;;
6432;SDS011;3249;42.690;23.260;2022-08-03T02:58:10;4.30;;;3.90;;
6432;SDS011;3249;42.690;23.260;2022-08-03T03:00:37;4.97;;;4.13;;
6432;SDS011;3249;42.690;23.260;2022-08-03T03:03:04;5.13;;;4.23;;
6432;SDS011;3249;42.690;23.260;2022-08-03T03:05:30;6.37;;;3.67;;
6432;SDS011;3249;42.690;23.260;2022-08-03T03:07:56;6.67;;;3.93;;
6432;SDS011;3249;42.690;23.260;2022-08-03T03:10:22;4.10;;;3.70;;
6432;SDS011;3249;42.690;23.260;2022-08-03T03:12:54;13.27;;;5.37;;
6432;SDS011;3249;42.690;23.260;2022-08-03T03:15:24;5.87;;;4.40;;
6432;SDS011;3249;42.690;23.260;2022-08-03T03:17:55;4.63;;;4.20;;
6432;SDS011;3249;42.690;23.260;2022-08-03T03:20:21;8.77;;;4.33;;
6432;SDS011;3249;42.690;23.260;2022-08-03T03:22:49;8.47;;;4.60;;
6432;SDS011;3249;42.690;23.260;2022-08-03T03:25:15;12.77;;;4.80;;
6432;SDS011;3249;42.690;23.260;2022-08-03T03:27:41;5.13;;;4.23;;
6432;SDS011;3249;42.690;23.260;2022-08-03T03:30:07;9.50;;;5.27;;
6432;SDS011;3249;42.690;23.260;2022-08-03T03:32:33;11.67;;;5.33;;
6432;SDS011;3249;42.690;23.260;2022-08-03T03:35:00;9.73;;;5.33;;
6432;SDS011;3249;42.690;23.260;2022-08-03T03:37:26;9.00;;;6.33;;
6432;SDS011;3249;42.690;23.260;2022-08-03T03:39:52;8.17;;;4.97;;
6432;SDS011;3249;42.690;23.260;2022-08-03T03:42:18;8.70;;;4.70;;
6432;SDS011;3249;42.690;23.260;2022-08-03T03:44:45;9.57;;;5.50;;
6432;SDS011;3249;42.690;23.260;2022-08-03T03:47:10;8.17;;;4.90;;
6432;SDS011;3249;42.690;23.260;2022-08-03T03:49:36;7.90;;;4.77;;
6432;SDS011;3249;42.690;23.260;2022-08-03T03:52:01;6.47;;;4.70;;
6432;SDS011;3249;42.690;23.260;2022-08-03T03:54:37;6.50;;;4.43;;
6432;SDS011;3249;42.690;23.260;2022-08-03T03:57:03;9.47;;;4.90;;
6432;SDS011;3249;42.690;23.260;2022-08-03T03:59:29;10.23;;;4.70;;
6432;SDS011;3249;42.690;23.260;2022-08-03T04:01:54;11.53;;;5.23;;
6432;SDS011;3249;42.690;23.260;2022-08-03T04:04:20;12.40;;;5.20;;
6432;SDS011;3249;42.690;23.260;2022-08-03T04:07:04;10.37;;;5.40;;
6432;SDS011;3249;42.690;23.260;2022-08-03T04:09:48;8.00;;;5.00;;
6432;SDS011;3249;42.690;23.260;2022-08-03T04:12:32;10.57;;;5.57;;
6432;SDS011;3249;42.690;23.260;2022-08-03T04:15:00;13.03;;;5.90;;
6432;SDS011;3249;42.690;23.260;2022-08-03T04:17:28;11.43;;;5.27;;
6432;SDS011;3249;42.690;23.260;2022-08-03T04:19:56;6.50;;;4.70;;
6432;SDS011;3249;42.690;23.260;2022-08-03T04:22:25;10.90;;;4.93;;
6432;SDS011;3249;42.690;23.260;2022-08-03T04:24:58;18.73;;;6.33;;
6432;SDS011;3249;42.690;23.260;2022-08-03T04:27:28;18.00;;;10.60;;
6432;SDS011;3249;42.690;23.260;2022-08-03T04:30:03;8.17;;;4.87;;
6432;SDS011;3249;42.690;23.260;2022-08-03T04:32:30;17.87;;;9.30;;
6432;SDS011;3249;42.690;23.260;2022-08-03T04:34:57;11.53;;;7.07;;
6432;SDS011;3249;42.690;23.260;2022-08-03T04:37:29;5.40;;;4.90;;
6432;SDS011;3249;42.690;23.260;2022-08-03T04:40:05;8.37;;;5.10;;
6432;SDS011;3249;42.690;23.260;2022-08-03T04:42:33;4.57;;;4.20;;
6432;SDS011;3249;42.690;23.260;2022-08-03T04:44:59;9.13;;;4.53;;
6432;SDS011;3249;42.690;23.260;2022-08-03T04:47:26;4.87;;;4.47;;
6432;SDS011;3249;42.690;23.260;2022-08-03T04:49:53;4.80;;;4.33;;
6432;SDS011;3249;42.690;23.260;2022-08-03T04:52:19;6.80;;;4.17;;
6432;SDS011;3249;42.690;23.260;2022-08-03T04:54:44;4.87;;;3.60;;
6432;SDS011;3249;42.690;23.260;2022-08-03T04:57:10;10.07;;;6.13;;
6432;SDS011;3249;42.690;23.260;2022-08-03T04:59:36;7.33;;;6.63;;
6432;SDS011;3249;42.690;23.260;2022-08-03T05:02:02;7.67;;;6.00;;
6432;SDS011;3249;42.690;23.260;2022-08-03T05:04:28;10.00;;;6.47;;
6432;SDS011;3249;42.690;23.260;2022-08-03T05:06:53;11.93;;;6.60;;
6432;SDS011;3249;42.690;23.260;2022-08-03T05:09:19;10.57;;;6.77;;
6432;SDS011;3249;42.690;23.260;2022-08-03T05:11:44;9.10;;;5.23;;
6432;SDS011;3249;42.690;23.260;2022-08-03T05:14:10;7.63;;;4.47;;
6432;SDS011;3249;42.690;23.260;2022-08-03T05:16:35;7.27;;;5.37;;
6432;SDS011;3249;42.690;23.260;2022-08-03T05:19:00;8.63;;;4.47;;
6432;SDS011;3249;42.690;23.260;2022-08-03T05:21:26;5.70;;;4.33;;
6432;SDS011;3249;42.690;23.260;2022-08-03T05:23:51;10.30;;;7.07;;
6432;SDS011;3249;42.690;23.260;2022-08-03T05:26:17;8.00;;;7.33;;
6432;SDS011;3249;42.690;23.260;2022-08-03T05:28:42;8.23;;;7.50;;
6432;SDS011;3249;42.690;23.260;2022-08-03T05:31:07;9.37;;;8.57;;
6432;SDS011;3249;42.690;23.260;2022-08-03T05:33:33;11.53;;;10.50;;
6432;SDS011;3249;42.690;23.260;2022-08-03T05:35:58;11.40;;;10.27;;
6432;SDS011;3249;42.690;23.260;2022-08-03T05:38:24;19.53;;;17.53;;
6432;SDS011;3249;42.690;23.260;2022-08-03T05:40:50;16.63;;;14.90;;
6432;SDS011;3249;42.690;23.260;2022-08-03T05:43:15;15.60;;;11.20;;
6432;SDS011;3249;42.690;23.260;2022-08-03T05:45:41;5.90;;;5.40;;
6432;SDS011;3249;42.690;23.260;2022-08-03T05:48:07;7.63;;;6.37;;
6432;SDS011;3249;42.690;23.260;2022-08-03T05:50:32;12.17;;;8.93;;
6432;SDS011;3249;42.690;23.260;2022-08-03T05:52:58;8.43;;;6.37;;
6432;SDS011;3249;42.690;23.260;2022-08-03T05:55:23;8.03;;;4.50;;
6432;SDS011;3249;42.690;23.260;2022-08-03T05:57:49;7.67;;;4.60;;
6432;SDS011;3249;42.690;23.260;2022-08-03T06:00:14;8.43;;;6.03;;
6432;SDS011;3249;42.690;23.260;2022-08-03T06:02:40;6.30;;;4.47;;
6432;SDS011;3249;42.690;23.260;2022-08-03T06:05:06;4.83;;;3.90;;
6432;SDS011;3249;42.690;23.260;2022-08-03T06:07:32;13.60;;;5.97;;
6432;SDS011;3249;42.690;23.260;2022-08-03T06:09:58;9.53;;;5.53;;
6432;SDS011;3249;42.690;23.260;2022-08-03T06:12:26;4.20;;;3.90;;
6432;SDS011;3249;42.690;23.260;2022-08-03T06:14:51;10.80;;;5.03;;
6432;SDS011;3249;42.690;23.260;2022-08-03T06:17:17;6.87;;;3.87;;
6432;SDS011;3249;42.690;23.260;2022-08-03T06:19:42;10.97;;;4.80;;
6432;SDS011;3249;42.690;23.260;2022-08-03T06:22:08;4.57;;;4.27;;
6432;SDS011;3249;42.690;23.260;2022-08-03T06:24:33;6.77;;;4.60;;
6432;SDS011;3249;42.690;23.260;2022-08-03T06:26:59;8.77;;;4.60;;
6432;SDS011;3249;42.690;23.260;2022-08-03T06:29:24;4.83;;;4.07;;
6432;SDS011;3249;42.690;23.260;2022-08-03T06:31:50;5.23;;;4.30;;
6432;SDS011;3249;42.690;23.260;2022-08-03T06:34:15;5.10;;;4.03;;
6432;SDS011;3249;42.690;23.260;2022-08-03T06:36:40;4.93;;;4.20;;
6432;SDS011;3249;42.690;23.260;2022-08-03T06:39:06;5.30;;;4.40;;
6432;SDS011;3249;42.690;23.260;2022-08-03T06:41:31;6.17;;;5.00;;
6432;SDS011;3249;42.690;23.260;2022-08-03T06:43:57;4.73;;;4.43;;
6432;SDS011;3249;42.690;23.260;2022-08-03T06:46:23;5.83;;;3.80;;
6432;SDS011;3249;42.690;23.260;2022-08-03T06:48:48;4.77;;;4.27;;
6432;SDS011;3249;42.690;23.260;2022-08-03T06:51:14;5.20;;;4.23;;
6432;SDS011;3249;42.690;23.260;2022-08-03T06:53:39;4.53;;;4.10;;
6432;SDS011;3249;42.690;23.260;2022-08-03T06:56:05;6.80;;;4.00;;
6432;SDS011;3249;42.690;23.260;2022-08-03T06:58:31;5.70;;;3.90;;
6432;SDS011;3249;42.690;23.260;2022-08-03T07:00:57;3.80;;;3.43;;
6432;SDS011;3249;42.690;23.260;2022-08-03T07:03:22;6.20;;;4.03;;
6432;SDS011;3249;42.690;23.260;2022-08-03T07:05:48;4.03;;;3.63;;
6432;SDS011;3249;42.690;23.260;2022-08-03T07:08:14;10.67;;;3.53;;
6432;SDS011;3249;42.690;23.260;2022-08-03T07:10:41;4.80;;;3.30;;
6432;SDS011;3249;42.690;23.260;2022-08-03T07:13:07;5.77;;;3.70;;
6432;SDS011;3249;42.690;23.260;2022-08-03T07:15:33;5.20;;;3.67;;
6432;SDS011;3249;42.690;23.260;2022-08-03T07:17:58;4.23;;;3.90;;
6432;SDS011;3249;42.690;23.260;2022-08-03T07:20:24;6.40;;;3.87;;
6432;SDS011;3249;42.690;23.260;2022-08-03T07:22:49;7.53;;;3.37;;
6432;SDS011;3249;42.690;23.260;2022-08-03T07:25:15;5.47;;;3.40;;
6432;SDS011;3249;42.690;23.260;2022-08-03T07:27:43;4.17;;;3.77;;
6432;SDS011;3249;42.690;23.260;2022-08-03T07:30:10;3.87;;;3.20;;
6432;SDS011;3249;42.690;23.260;2022-08-03T07:32:36;3.53;;;3.27;;
6432;SDS011;3249;42.690;23.260;2022-08-03T07:35:03;4.50;;;3.37;;
6432;SDS011;3249;42.690;23.260;2022-08-03T07:37:29;3.70;;;3.30;;
6432;SDS011;3249;42.690;23.260;2022-08-03T07:39:55;4.07;;;3.33;;
6432;SDS011;3249;42.690;23.260;2022-08-03T07:42:21;3.77;;;2.73;;
6432;SDS011;3249;42.690;23.260;2022-08-03T07:44:47;4.00;;;3.20;;
6432;SDS011;3249;42.690;23.260;2022-08-03T07:47:17;4.37;;;3.33;;
6432;SDS011;3249;42.690;23.260;2022-08-03T07:49:52;3.97;;;3.50;;
6432;SDS011;3249;42.690;23.260;2022-08-03T07:52:18;6.03;;;3.00;;
6432;SDS011;3249;42.690;23.260;2022-08-03T07:55:03;4.40;;;2.93;;
6432;SDS011;3249;42.690;23.260;2022-08-03T07:57:30;4.80;;;2.80;;
6432;SDS011;3249;42.690;23.260;2022-08-03T07:59:55;4.40;;;2.93;;
6432;SDS011;3249;42.690;23.260;2022-08-03T08:02:21;5.23;;;3.70;;
6432;SDS011;3249;42.690;23.260;2022-08-03T08:04:46;3.87;;;3.10;;
6432;SDS011;3249;42.690;23.260;2022-08-03T08:07:12;4.27;;;3.17;;
6432;SDS011;3249;42.690;23.260;2022-08-03T08:09:37;3.10;;;2.90;;
6432;SDS011;3249;42.690;23.260;2022-08-03T08:12:03;4.30;;;3.20;;
6432;SDS011;3249;42.690;23.260;2022-08-03T08:14:28;4.60;;;2.83;;
6432;SDS011;3249;42.690;23.260;2022-08-03T08:16:54;6.50;;;2.83;;
6432;SDS011;3249;42.690;23.260;2022-08-03T08:19:19;3.30;;;3.00;;
6432;SDS011;3249;42.690;23.260;2022-08-03T08:21:45;3.00;;;2.80;;
6432;SDS011;3249;42.690;23.260;2022-08-03T08:24:10;7.70;;;3.07;;
6432;SDS011;3249;42.690;23.260;2022-08-03T08:26:36;3.53;;;2.60;;
6432;SDS011;3249;42.690;23.260;2022-08-03T08:29:02;3.10;;;2.87;;
6432;SDS011;3249;42.690;23.260;2022-08-03T08:31:27;2.87;;;2.67;;
6432;SDS011;3249;42.690;23.260;2022-08-03T08:33:53;3.00;;;2.80;;
6432;SDS011;3249;42.690;23.260;2022-08-03T08:36:18;3.57;;;2.70;;
6432;SDS011;3249;42.690;23.260;2022-08-03T08:38:44;2.90;;;2.70;;
6432;SDS011;3249;42.690;23.260;2022-08-03T08:41:09;3.63;;;2.63;;
6432;SDS011;3249;42.690;23.260;2022-08-03T08:43:36;3.03;;;2.73;;
6432;SDS011;3249;42.690;23.260;2022-08-03T08:46:02;2.80;;;2.60;;
6432;SDS011;3249;42.690;23.260;2022-08-03T08:48:29;3.53;;;3.17;;
6432;SDS011;3249;42.690;23.260;2022-08-03T08:50:55;3.97;;;2.37;;
6432;SDS011;3249;42.690;23.260;2022-08-03T08:53:23;4.30;;;2.50;;
6432;SDS011;3249;42.690;23.260;2022-08-03T08:55:51;4.27;;;2.90;;
6432;SDS011;3249;42.690;23.260;2022-08-03T08:58:19;4.03;;;3.13;;
6432;SDS011;3249;42.690;23.260;2022-08-03T09:00:46;5.90;;;2.63;;
6432;SDS011;3249;42.690;23.260;2022-08-03T11:27:19;2.87;;;2.77;;
6432;SDS011;3249;42.690;23.260;2022-08-03T11:33:05;4.47;;;4.17;;
6432;SDS011;3249;42.690;23.260;2022-08-03T11:35:18;4.07;;;3.77;;
6432;SDS011;3249;42.690;23.260;2022-08-03T11:40:39;3.03;;;2.77;;
6432;SDS011;3249;42.690;23.260;2022-08-03T11:43:42;4.10;;;3.90;;
6432;SDS011;3249;42.690;23.260;2022-08-03T11:48:25;3.10;;;2.90;;
6432;SDS011;3249;42.690;23.260;2022-08-03T11:50:52;3.20;;;3.00;;
6432;SDS011;3249;42.690;23.260;2022-08-03T11:53:18;3.27;;;3.07;;
6432;SDS011;3249;42.690;23.260;2022-08-03T11:55:45;6.13;;;3.20;;
6432;SDS011;3249;42.690;23.260;2022-08-03T11:58:15;3.60;;;3.10;;
6432;SDS011;3249;42.690;23.260;2022-08-03T12:00:41;3.40;;;3.10;;
6432;SDS011;3249;42.690;23.260;2022-08-03T12:03:08;3.13;;;2.93;;
6432;SDS011;3249;42.690;23.260;2022-08-03T12:05:43;3.23;;;2.70;;
6432;SDS011;3249;42.690;23.260;2022-08-03T12:08:09;3.27;;;3.07;;
6432;SDS011;3249;42.690;23.260;2022-08-03T12:10:37;3.33;;;3.20;;
6432;SDS011;3249;42.690;23.260;2022-08-03T12:13:04;3.37;;;3.17;;
6432;SDS011;3249;42.690;23.260;2022-08-03T12:15:32;2.90;;;2.80;;
6432;SDS011;3249;42.690;23.260;2022-08-03T12:17:58;3.07;;;2.87;;
6432;SDS011;3249;42.690;23.260;2022-08-03T12:20:26;3.60;;;3.10;;
6432;SDS011;3249;42.690;23.260;2022-08-03T12:22:52;3.80;;;3.10;;
6432;SDS011;3249;42.690;23.260;2022-08-03T12:25:22;3.67;;;2.90;;
6432;SDS011;3249;42.690;23.260;2022-08-03T12:27:50;3.10;;;2.90;;
6432;SDS011;3249;42.690;23.260;2022-08-03T12:30:17;5.07;;;3.00;;
6432;SDS011;3249;42.690;23.260;2022-08-03T12:32:43;4.10;;;3.70;;
6432;SDS011;3249;42.690;23.260;2022-08-03T12:35:09;3.40;;;3.10;;
6432;SDS011;3249;42.690;23.260;2022-08-03T12:37:35;4.40;;;3.07;;
6432;SDS011;3249;42.690;23.260;2022-08-03T12:40:01;5.33;;;3.10;;
6432;SDS011;3249;42.690;23.260;2022-08-03T12:44:56;5.30;;;3.27;;
6432;SDS011;3249;42.690;23.260;2022-08-03T12:47:22;3.80;;;3.60;;
6432;SDS011;3249;42.690;23.260;2022-08-03T12:49:48;4.17;;;3.43;;
6432;SDS011;3249;42.690;23.260;2022-08-03T12:52:16;3.40;;;3.10;;
6432;SDS011;3249;42.690;23.260;2022-08-03T12:54:52;5.57;;;3.77;;
6432;SDS011;3249;42.690;23.260;2022-08-03T12:57:21;7.30;;;3.20;;
6432;SDS011;3249;42.690;23.260;2022-08-03T12:59:47;3.40;;;3.10;;
6432;SDS011;3249;42.690;23.260;2022-08-03T13:02:14;3.20;;;3.00;;
6432;SDS011;3249;42.690;23.260;2022-08-03T13:04:41;6.27;;;3.27;;
6432;SDS011;3249;42.690;23.260;2022-08-03T13:07:07;4.87;;;3.60;;
6432;SDS011;3249;42.690;23.260;2022-08-03T13:09:43;3.20;;;3.00;;
6432;SDS011;3249;42.690;23.260;2022-08-03T13:12:16;3.50;;;3.20;;
6432;SDS011;3249;42.690;23.260;2022-08-03T13:14:43;3.70;;;3.50;;
6432;SDS011;3249;42.690;23.260;2022-08-03T13:17:14;3.83;;;3.50;;
6432;SDS011;3249;42.690;23.260;2022-08-03T13:19:43;3.50;;;3.30;;
6432;SDS011;3249;42.690;23.260;2022-08-03T13:22:19;3.60;;;3.30;;
6432;SDS011;3249;42.690;23.260;2022-08-03T13:24:47;6.20;;;4.33;;
6432;SDS011;3249;42.690;23.260;2022-08-03T13:27:14;3.00;;;2.80;;
6432;SDS011;3249;42.690;23.260;2022-08-03T13:29:40;4.57;;;4.10;;
6432;SDS011;3249;42.690;23.260;2022-08-03T13:32:07;4.10;;;3.70;;
6432;SDS011;3249;42.690;23.260;2022-08-03T13:34:33;3.87;;;3.57;;
6432;SDS011;3249;42.690;23.260;2022-08-03T13:36:58;3.87;;;3.67;;
6432;SDS011;3249;42.690;23.260;2022-08-03T13:39:24;7.40;;;4.10;;
6432;SDS011;3249;42.690;23.260;2022-08-03T13:41:49;4.13;;;3.60;;
6432;SDS011;3249;42.690;23.260;2022-08-03T13:44:15;7.43;;;3.67;;
6432;SDS011;3249;42.690;23.260;2022-08-03T13:46:41;6.33;;;3.07;;
6432;SDS011;3249;42.690;23.260;2022-08-03T13:49:06;4.63;;;3.20;;
6432;SDS011;3249;42.690;23.260;2022-08-03T13:51:32;7.60;;;3.60;;
6432;SDS011;3249;42.690;23.260;2022-08-03T13:53:58;4.07;;;3.73;;
6432;SDS011;3249;42.690;23.260;2022-08-03T13:56:27;3.93;;;3.20;;
6432;SDS011;3249;42.690;23.260;2022-08-03T13:58:54;4.10;;;3.23;;
6432;SDS011;3249;42.690;23.260;2022-08-03T14:01:20;3.97;;;3.03;;
6432;SDS011;3249;42.690;23.260;2022-08-03T14:03:46;4.03;;;3.73;;
6432;SDS011;3249;42.690;23.260;2022-08-03T14:06:18;3.40;;;3.20;;
6432;SDS011;3249;42.690;23.260;2022-08-03T14:08:47;8.57;;;5.43;;
6432;SDS011;3249;42.690;23.260;2022-08-03T14:11:12;4.20;;;3.97;;
6432;SDS011;3249;42.690;23.260;2022-08-03T14:13:38;4.33;;;3.80;;
6432;SDS011;3249;42.690;23.260;2022-08-03T14:16:04;3.70;;;3.40;;
6432;SDS011;3249;42.690;23.260;2022-08-03T14:18:29;4.60;;;4.20;;
6432;SDS011;3249;42.690;23.260;2022-08-03T14:20:55;5.40;;;3.63;;
6432;SDS011;3249;42.690;23.260;2022-08-03T14:23:21;6.70;;;3.63;;
6432;SDS011;3249;42.690;23.260;2022-08-03T14:25:47;4.67;;;4.23;;
6432;SDS011;3249;42.690;23.260;2022-08-03T14:28:12;4.67;;;3.57;;
6432;SDS011;3249;42.690;23.260;2022-08-03T14:30:37;6.00;;;3.80;;
6432;SDS011;3249;42.690;23.260;2022-08-03T14:33:03;3.93;;;3.57;;
6432;SDS011;3249;42.690;23.260;2022-08-03T14:35:28;3.80;;;3.50;;
6432;SDS011;3249;42.690;23.260;2022-08-03T14:37:54;3.47;;;3.27;;
6432;SDS011;3249;42.690;23.260;2022-08-03T14:40:19;3.50;;;3.30;;
6432;SDS011;3249;42.690;23.260;2022-08-03T14:42:45;4.57;;;3.50;;
6432;SDS011;3249;42.690;23.260;2022-08-03T14:45:11;6.53;;;4.00;;
6432;SDS011;3249;42.690;23.260;2022-08-03T14:47:37;5.37;;;3.50;;
6432;SDS011;3249;42.690;23.260;2022-08-03T14:50:03;3.63;;;3.43;;
6432;SDS011;3249;42.690;23.260;2022-08-03T14:52:29;4.63;;;4.00;;
6432;SDS011;3249;42.690;23.260;2022-08-03T14:54:56;4.80;;;4.37;;
6432;SDS011;3249;42.690;23.260;2022-08-03T14:57:21;6.10;;;4.43;;
6432;SDS011;3249;42.690;23.260;2022-08-03T14:59:47;6.43;;;4.20;;
6432;SDS011;3249;42.690;23.260;2022-08-03T15:02:12;5.10;;;3.73;;
6432;SDS011;3249;42.690;23.260;2022-08-03T15:04:38;3.13;;;2.93;;
6432;SDS011;3249;42.690;23.260;2022-08-03T15:07:03;6.57;;;4.50;;
6432;SDS011;3249;42.690;23.260;2022-08-03T15:09:29;4.47;;;4.07;;
6432;SDS011;3249;42.690;23.260;2022-08-03T15:11:55;5.27;;;3.63;;
6432;SDS011;3249;42.690;23.260;2022-08-03T15:14:20;3.87;;;2.90;;
6432;SDS011;3249;42.690;23.260;2022-08-03T15:16:45;3.57;;;3.27;;
6432;SDS011;3249;42.690;23.260;2022-08-03T15:19:11;3.50;;;3.20;;
6432;SDS011;3249;42.690;23.260;2022-08-03T15:21:37;3.87;;;3.43;;
6432;SDS011;3249;42.690;23.260;2022-08-03T15:24:02;5.27;;;3.00;;
6432;SDS011;3249;42.690;23.260;2022-08-03T15:26:28;3.60;;;3.40;;
6432;SDS011;3249;42.690;23.260;2022-08-03T15:28:54;3.63;;;3.30;;
6432;SDS011;3249;42.690;23.260;2022-08-03T15:31:20;16.47;;;4.60;;
6432;SDS011;3249;42.690;23.260;2022-08-03T15:33:46;4.73;;;4.23;;
6432;SDS011;3249;42.690;23.260;2022-08-03T15:36:11;3.43;;;3.23;;
6432;SDS011;3249;42.690;23.260;2022-08-03T15:38:37;4.07;;;3.67;;
6432;SDS011;3249;42.690;23.260;2022-08-03T15:41:02;6.10;;;4.00;;
6432;SDS011;3249;42.690;23.260;2022-08-03T15:43:28;4.03;;;3.67;;
6432;SDS011;3249;42.690;23.260;2022-08-03T15:45:53;3.93;;;3.63;;
6432;SDS011;3249;42.690;23.260;2022-08-03T15:48:18;5.90;;;3.67;;
6432;SDS011;3249;42.690;23.260;2022-08-03T15:50:44;3.83;;;3.53;;
6432;SDS011;3249;42.690;23.260;2022-08-03T15:53:10;3.93;;;3.70;;
6432;SDS011;3249;42.690;23.260;2022-08-03T15:55:35;4.80;;;4.43;;
6432;SDS011;3249;42.690;23.260;2022-08-03T15:58:01;6.43;;;4.30;;
6432;SDS011;3249;42.690;23.260;2022-08-03T16:00:26;4.03;;;3.73;;
6432;SDS011;3249;42.690;23.260;2022-08-03T16:02:52;3.63;;;3.30;;
6432;SDS011;3249;42.690;23.260;2022-08-03T16:05:18;4.13;;;3.73;;
6432;SDS011;3249;42.690;23.260;2022-08-03T16:07:43;8.57;;;3.73;;
6432;SDS011;3249;42.690;23.260;2022-08-03T16:10:16;3.97;;;3.63;;
6432;SDS011;3249;42.690;23.260;2022-08-03T16:12:42;7.80;;;3.97;;
6432;SDS011;3249;42.690;23.260;2022-08-03T16:15:08;4.20;;;3.70;;
6432;SDS011;3249;42.690;23.260;2022-08-03T16:17:35;6.37;;;3.93;;
6432;SDS011;3249;42.690;23.260;2022-08-03T16:20:01;4.07;;;3.10;;
6432;SDS011;3249;42.690;23.260;2022-08-03T16:22:27;3.50;;;3.20;;
6432;SDS011;3249;42.690;23.260;2022-08-03T16:24:53;3.57;;;3.27;;
6432;SDS011;3249;42.690;23.260;2022-08-03T16:27:19;3.70;;;3.30;;
6432;SDS011;3249;42.690;23.260;2022-08-03T16:29:45;4.17;;;3.20;;
6432;SDS011;3249;42.690;23.260;2022-08-03T16:32:10;3.93;;;3.20;;
6432;SDS011;3249;42.690;23.260;2022-08-03T16:34:36;3.10;;;2.90;;
6432;SDS011;3249;42.690;23.260;2022-08-03T16:37:02;3.47;;;3.27;;
6432;SDS011;3249;42.690;23.260;2022-08-03T16:39:28;3.37;;;3.07;;
6432;SDS011;3249;42.690;23.260;2022-08-03T16:41:53;4.10;;;3.73;;
6432;SDS011;3249;42.690;23.260;2022-08-03T16:44:19;3.37;;;3.13;;
6432;SDS011;3249;42.690;23.260;2022-08-03T16:46:44;3.30;;;3.10;;
6432;SDS011;3249;42.690;23.260;2022-08-03T16:49:10;3.60;;;3.40;;
6432;SDS011;3249;42.690;23.260;2022-08-03T16:51:36;4.27;;;3.97;;
6432;SDS011;3249;42.690;23.260;2022-08-03T16:54:05;3.87;;;3.67;;
6432;SDS011;3249;42.690;23.260;2022-08-03T16:56:31;4.13;;;3.40;;
6432;SDS011;3249;42.690;23.260;2022-08-03T16:58:58;3.40;;;3.20;;
6432;SDS011;3249;42.690;23.260;2022-08-03T17:01:23;2.97;;;2.80;;
6432;SDS011;3249;42.690;23.260;2022-08-03T17:03:50;3.50;;;3.30;;
6432;SDS011;3249;42.690;23.260;2022-08-03T17:06:23;3.73;;;3.43;;
6432;SDS011;3249;42.690;23.260;2022-08-03T17:08:49;4.30;;;3.33;;
6432;SDS011;3249;42.690;23.260;2022-08-03T17:11:18;3.37;;;3.17;;
6432;SDS011;3249;42.690;23.260;2022-08-03T17:13:44;3.53;;;3.23;;
6432;SDS011;3249;42.690;23.260;2022-08-03T17:16:11;4.00;;;3.70;;
6432;SDS011;3249;42.690;23.260;2022-08-03T17:18:38;3.30;;;3.10;;
6432;SDS011;3249;42.690;23.260;2022-08-03T17:21:16;3.53;;;3.23;;
6432;SDS011;3249;42.690;23.260;2022-08-03T17:26:30;3.33;;;3.13;;
6432;SDS011;3249;42.690;23.260;2022-08-03T17:28:59;3.60;;;3.40;;
6432;SDS011;3249;42.690;23.260;2022-08-03T17:31:28;3.40;;;3.20;;
6432;SDS011;3249;42.690;23.260;2022-08-03T17:33:56;3.70;;;3.40;;
6432;SDS011;3249;42.690;23.260;2022-08-03T17:36:22;4.10;;;3.87;;
6432;SDS011;3249;42.690;23.260;2022-08-03T17:38:50;6.63;;;3.70;;
6432;SDS011;3249;42.690;23.260;2022-08-03T17:41:20;3.97;;;3.77;;
6432;SDS011;3249;42.690;23.260;2022-08-03T17:43:47;5.73;;;4.87;;
6432;SDS011;3249;42.690;23.260;2022-08-03T17:46:16;6.30;;;4.93;;
6432;SDS011;3249;42.690;23.260;2022-08-03T17:48:42;4.20;;;3.90;;